Time;durP1;ratioP1;P1;durP2;ratioP2;P2;SDS_P1;SDS_P2;PMS_P1;PMS_P2;Temp;Humidity;BMP_temperature;BMP_pressure;BME280_temperature;BME280_humidity;BME280_pressure;Samples;Min_cycle;Max_cycle;Signal;HPM_P1;HPM_P2
2021/07/30 00:00:47;;;;;;;7.82;4.75;;;16.40;11.00;;;;;;5077657;28;20046;-70
2021/07/30 00:03:37;;;;;;;8.32;4.93;;;16.40;12.20;;;;;;5078216;28;20248;-70
2021/07/30 00:06:46;;;;;;;7.55;4.75;;;16.40;12.20;;;;;;5077863;28;20105;-71
2021/07/30 00:09:34;;;;;;;6.88;5.03;;;16.40;12.90;;;;;;5084933;28;20048;-70
2021/07/30 00:12:22;;;;;;;9.27;5.47;;;16.20;13.40;;;;;;5081403;28;20043;-71
2021/07/30 00:15:16;;;;;;;8.68;4.60;;;16.20;14.20;;;;;;5077837;28;20050;-71
2021/07/30 00:18:05;;;;;;;8.35;5.57;;;16.20;15.00;;;;;;5077319;28;20051;-70
2021/07/30 00:20:56;;;;;;;10.63;6.47;;;16.10;15.10;;;;;;5079077;28;20048;-71
2021/07/30 00:23:44;;;;;;;13.45;5.30;;;16.20;15.70;;;;;;5083891;28;21571;-70
2021/07/30 00:26:33;;;;;;;6.57;5.10;;;16.10;15.60;;;;;;5078105;28;20138;-71
2021/07/30 00:29:21;;;;;;;7.90;5.90;;;16.10;16.60;;;;;;5077123;28;20078;-70
2021/07/30 00:32:09;;;;;;;9.05;5.88;;;16.10;16.70;;;;;;5072289;28;20053;-70
2021/07/30 00:34:58;;;;;;;7.60;5.30;;;16.00;16.80;;;;;;5078629;28;20590;-71
2021/07/30 00:37:47;;;;;;;5.85;4.70;;;15.90;17.90;;;;;;5077667;28;20040;-71
2021/07/30 00:40:36;;;;;;;9.45;5.30;;;15.80;18.30;;;;;;5063088;28;20048;-71
2021/07/30 00:43:24;;;;;;;6.65;4.60;;;15.80;19.00;;;;;;5077397;28;20078;-70
2021/07/30 00:46:14;;;;;;;6.88;4.95;;;15.70;19.00;;;;;;5077412;28;20048;-70
2021/07/30 00:49:03;;;;;;;10.88;5.13;;;15.60;20.70;;;;;;5078334;28;20685;-70
2021/07/30 00:51:51;;;;;;;6.90;5.07;;;15.50;21.50;;;;;;5078690;28;20040;-70
2021/07/30 00:54:41;;;;;;;9.52;5.90;;;15.40;23.40;;;;;;5077015;28;20044;-71
2021/07/30 00:57:30;;;;;;;8.88;5.90;;;15.50;22.70;;;;;;5075597;28;20580;-71
2021/07/30 01:00:19;;;;;;;8.93;5.15;;;15.50;23.30;;;;;;5080010;28;20506;-70
2021/07/30 01:03:09;;;;;;;7.35;5.40;;;15.50;23.60;;;;;;5079457;28;20040;-70
2021/07/30 01:05:57;;;;;;;7.18;5.30;;;15.50;23.20;;;;;;5077980;28;20048;-70
2021/07/30 01:08:46;;;;;;;7.95;5.68;;;15.60;23.10;;;;;;5076417;28;20044;-69
2021/07/30 01:11:36;;;;;;;9.75;5.90;;;15.70;22.40;;;;;;5079131;28;20981;-71
2021/07/30 01:14:24;;;;;;;9.68;5.22;;;15.80;20.50;;;;;;5080645;28;20181;-70
2021/07/30 01:17:13;;;;;;;6.57;5.03;;;15.80;20.50;;;;;;5078282;28;20328;-70
2021/07/30 01:20:06;;;;;;;6.45;5.22;;;15.70;19.90;;;;;;5076985;28;20044;-70
2021/07/30 01:22:57;;;;;;;10.25;6.03;;;15.60;20.30;;;;;;5077642;28;20610;-71
2021/07/30 01:25:46;;;;;;;8.85;5.38;;;15.60;21.00;;;;;;5080871;28;20109;-71
2021/07/30 01:28:34;;;;;;;6.25;5.20;;;15.60;20.90;;;;;;5081321;28;20170;-70
2021/07/30 01:31:22;;;;;;;13.13;5.47;;;15.70;21.30;;;;;;5076236;28;20515;-69
2021/07/30 01:34:11;;;;;;;6.68;5.18;;;15.80;20.20;;;;;;5076508;28;20032;-69
2021/07/30 01:36:59;;;;;;;9.00;5.53;;;15.80;20.20;;;;;;5073555;28;20052;-69
2021/07/30 01:39:49;;;;;;;7.70;4.90;;;15.80;19.90;;;;;;5082163;28;20044;-69
2021/07/30 01:42:38;;;;;;;6.80;5.20;;;15.80;20.40;;;;;;5079690;28;20103;-70
2021/07/30 01:45:27;;;;;;;8.32;5.63;;;15.70;20.60;;;;;;5071038;28;20565;-71
2021/07/30 01:48:15;;;;;;;7.13;4.93;;;15.70;20.50;;;;;;5073399;28;20044;-71
2021/07/30 01:51:04;;;;;;;9.82;5.45;;;15.80;20.20;;;;;;5072117;28;20080;-70
2021/07/30 01:53:52;;;;;;;8.75;5.43;;;15.70;20.10;;;;;;5080889;28;20047;-70
2021/07/30 01:56:42;;;;;;;7.88;5.40;;;15.70;20.30;;;;;;5079148;28;20056;-71
2021/07/30 01:59:31;;;;;;;6.32;5.10;;;15.70;19.90;;;;;;5073219;28;20575;-70
2021/07/30 02:02:19;;;;;;;9.13;5.38;;;15.40;22.00;;;;;;5074129;28;20145;-70
2021/07/30 02:05:09;;;;;;;7.35;5.15;;;15.20;24.60;;;;;;5074818;28;20052;-69
2021/07/30 02:07:57;;;;;;;8.07;5.10;;;15.10;25.70;;;;;;5081777;28;20072;-70
2021/07/30 02:10:46;;;;;;;8.60;5.03;;;15.00;26.50;;;;;;5081192;28;20066;-70
2021/07/30 02:16:42;;;;;;;6.85;5.53;;;14.90;28.40;;;;;;5078620;28;20051;-70
2021/07/30 02:19:30;;;;;;;8.48;5.70;;;14.90;29.00;;;;;;5083192;28;20451;-70
2021/07/30 02:22:19;;;;;;;6.50;5.80;;;15.10;27.90;;;;;;5081085;28;20129;-69
2021/07/30 02:25:08;;;;;;;9.63;6.20;;;15.20;26.70;;;;;;5081641;28;20056;-70
2021/07/30 02:27:56;;;;;;;6.38;5.72;;;15.30;26.60;;;;;;5081766;28;20554;-70
2021/07/30 02:30:46;;;;;;;8.13;5.93;;;15.30;27.10;;;;;;5080204;28;20086;-70
2021/07/30 02:33:34;;;;;;;9.68;6.53;;;15.20;27.20;;;;;;5081873;28;20074;-69
2021/07/30 02:36:23;;;;;;;12.27;7.35;;;15.20;27.40;;;;;;5084474;28;20043;-70
2021/07/30 02:39:12;;;;;;;10.27;7.60;;;15.20;27.70;;;;;;5080603;28;20128;-71
2021/07/30 02:42:00;;;;;;;11.52;7.43;;;15.30;28.30;;;;;;5076421;28;20117;-70
2021/07/30 02:44:51;;;;;;;7.32;5.90;;;15.30;28.40;;;;;;5080518;28;20048;-70
2021/07/30 02:47:41;;;;;;;8.70;6.68;;;15.10;28.30;;;;;;5081159;28;20127;-71
2021/07/30 02:50:29;;;;;;;10.75;6.18;;;14.90;30.20;;;;;;5083771;28;20055;-71
2021/07/30 02:53:17;;;;;;;10.10;6.85;;;14.90;31.00;;;;;;5078126;28;20079;-70
2021/07/30 02:56:06;;;;;;;11.52;7.88;;;14.90;32.80;;;;;;5064706;28;20084;-71
2021/07/30 02:58:54;;;;;;;11.73;8.00;;;15.10;32.90;;;;;;5078858;28;20491;-70
2021/07/30 03:01:43;;;;;;;9.95;7.93;;;15.20;31.20;;;;;;5078370;28;20185;-70
2021/07/30 03:04:33;;;;;;;10.27;8.20;;;15.10;32.10;;;;;;5079983;28;20052;-70
2021/07/30 03:07:22;;;;;;;12.80;7.75;;;14.90;32.80;;;;;;5078408;28;20724;-70
2021/07/30 03:10:11;;;;;;;11.85;9.02;;;14.90;35.10;;;;;;5077451;28;20044;-69
2021/07/30 03:12:59;;;;;;;12.57;8.82;;;14.90;36.50;;;;;;5081392;28;20058;-69
2021/07/30 03:15:51;;;;;;;10.95;8.38;;;15.00;36.20;;;;;;5080830;28;20492;-69
2021/07/30 03:18:40;;;;;;;20.55;8.85;;;15.00;34.50;;;;;;5077291;28;20117;-70
2021/07/30 03:21:29;;;;;;;12.35;7.90;;;15.10;34.50;;;;;;5076216;28;20161;-70
2021/07/30 03:24:18;;;;;;;10.27;7.60;;;14.90;34.70;;;;;;5080401;28;20464;-70
2021/07/30 03:27:06;;;;;;;10.20;7.88;;;15.00;34.60;;;;;;5082409;28;20055;-70
2021/07/30 03:29:55;;;;;;;11.57;7.90;;;15.00;34.40;;;;;;5079491;28;20052;-70
2021/07/30 03:32:43;;;;;;;9.75;7.50;;;14.90;34.50;;;;;;5077009;28;20071;-70
2021/07/30 03:35:32;;;;;;;11.80;7.53;;;14.90;35.00;;;;;;5079355;28;20040;-70
2021/07/30 03:38:21;;;;;;;10.55;7.65;;;14.80;35.30;;;;;;5077234;28;20044;-70
2021/07/30 03:41:10;;;;;;;8.98;6.53;;;14.90;35.40;;;;;;5074226;28;20115;-70
2021/07/30 03:43:58;;;;;;;9.05;6.28;;;14.90;33.60;;;;;;5077096;28;20136;-69
2021/07/30 03:46:47;;;;;;;9.20;6.95;;;14.90;32.80;;;;;;5078071;28;21434;-71
2021/07/30 03:49:35;;;;;;;10.05;6.38;;;15.00;31.60;;;;;;5084409;28;20523;-70
2021/07/30 03:52:23;;;;;;;7.68;6.38;;;15.00;31.30;;;;;;5080058;28;20052;-70
2021/07/30 03:55:13;;;;;;;8.00;5.95;;;15.10;29.90;;;;;;5077157;28;20148;-70
2021/07/30 03:58:01;;;;;;;11.05;7.00;;;14.90;30.30;;;;;;5077364;28;20047;-70
2021/07/30 04:00:50;;;;;;;11.23;6.03;;;14.80;31.20;;;;;;5081020;28;20157;-70
2021/07/30 04:03:39;;;;;;;8.15;5.95;;;14.80;31.60;;;;;;5084854;28;20204;-70
2021/07/30 04:06:27;;;;;;;11.40;6.15;;;14.80;31.30;;;;;;5074351;28;20041;-70
2021/07/30 04:09:16;;;;;;;9.18;6.00;;;14.80;31.30;;;;;;5077993;28;20131;-70
2021/07/30 04:12:08;;;;;;;8.38;6.43;;;14.90;30.30;;;;;;5078590;28;20052;-70
2021/07/30 04:14:56;;;;;;;9.45;6.00;;;14.90;30.40;;;;;;5080062;28;20040;-70
2021/07/30 04:17:44;;;;;;;10.00;6.13;;;15.00;29.80;;;;;;5083797;28;20055;-70
2021/07/30 04:20:33;;;;;;;9.10;6.03;;;15.80;22.60;;;;;;5078711;28;20137;-69
2021/07/30 04:23:21;;;;;;;8.18;6.10;;;16.40;15.80;;;;;;5076042;28;20051;-70
2021/07/30 04:26:10;;;;;;;8.10;6.00;;;16.90;12.50;;;;;;5077975;28;20143;-70
2021/07/30 04:28:59;;;;;;;7.55;5.07;;;17.40;9.20;;;;;;5077461;28;20048;-69
2021/07/30 04:31:48;;;;;;;7.82;5.45;;;17.30;8.10;;;;;;5078569;28;20146;-69
2021/07/30 04:34:37;;;;;;;8.23;5.82;;;17.30;6.40;;;;;;5078164;28;20498;-70
2021/07/30 04:37:25;;;;;;;9.18;6.13;;;17.90;3.50;;;;;;5063961;28;20037;-70
2021/07/30 04:40:14;;;;;;;9.23;6.25;;;18.30;1.00;;;;;;5074361;28;20307;-70
2021/07/30 04:43:02;;;;;;;8.45;6.63;;;18.90;1.00;;;;;;5082846;28;20052;-70
2021/07/30 04:45:52;;;;;;;8.20;6.30;;;19.20;1.00;;;;;;5080992;28;20044;-69
2021/07/30 04:48:40;;;;;;;8.75;6.75;;;18.80;1.00;;;;;;5078230;28;20063;-70
2021/07/30 04:51:29;;;;;;;12.65;6.78;;;19.10;1.00;;;;;;5075006;28;20151;-70
2021/07/30 04:54:17;;;;;;;8.20;6.43;;;19.20;1.00;;;;;;5075167;28;20082;-71
2021/07/30 04:57:08;;;;;;;9.40;6.50;;;20.00;1.00;;;;;;5079945;28;20059;-69
2021/07/30 04:59:56;;;;;;;8.75;6.75;;;19.60;1.00;;;;;;5077730;28;20101;-70
2021/07/30 05:02:46;;;;;;;9.50;7.05;;;19.90;1.00;;;;;;5075427;28;20131;-70
2021/07/30 05:05:35;;;;;;;11.50;7.25;;;19.50;1.00;;;;;;5075219;28;20692;-72
2021/07/30 05:08:23;;;;;;;11.63;6.82;;;19.30;1.00;;;;;;5077255;28;20169;-70
2021/07/30 05:11:11;;;;;;;10.05;6.20;;;19.40;1.00;;;;;;5080587;28;20142;-70
2021/07/30 05:14:00;;;;;;;10.38;6.68;;;20.40;1.00;;;;;;5076596;28;20101;-71
2021/07/30 05:16:48;;;;;;;11.23;6.43;;;20.40;1.00;;;;;;5073820;28;20043;-71
2021/07/30 05:19:39;;;;;;;7.65;6.03;;;20.70;1.00;;;;;;5077742;28;20534;-71
2021/07/30 05:22:27;;;;;;;8.48;6.75;;;20.50;1.00;;;;;;5066280;28;20539;-71
2021/07/30 05:25:16;;;;;;;11.50;6.68;;;20.60;1.00;;;;;;5074992;28;20051;-70
2021/07/30 05:28:05;;;;;;;8.90;6.22;;;21.00;1.00;;;;;;5072741;28;20051;-70
2021/07/30 05:30:54;;;;;;;10.38;6.63;;;20.80;1.00;;;;;;5078017;28;20136;-69
2021/07/30 05:33:43;;;;;;;14.43;6.80;;;20.90;1.00;;;;;;5078567;28;20071;-70
2021/07/30 05:36:33;;;;;;;10.18;6.65;;;20.60;1.00;;;;;;5078557;28;20079;-70
2021/07/30 05:39:21;;;;;;;11.35;6.70;;;21.30;1.00;;;;;;5076114;28;20393;-69
2021/07/30 05:42:10;;;;;;;12.27;7.65;;;21.10;1.00;;;;;;5073900;28;20098;-70
2021/07/30 05:44:58;;;;;;;9.00;7.05;;;20.60;1.00;;;;;;5079487;28;20060;-72
2021/07/30 05:47:48;;;;;;;9.77;7.00;;;20.40;1.00;;;;;;5061395;28;20070;-70
2021/07/30 05:50:36;;;;;;;9.88;7.13;;;20.50;1.00;;;;;;5078906;28;20075;-70
2021/07/30 05:53:26;;;;;;;9.85;6.72;;;21.10;1.00;;;;;;5078223;28;20066;-70
2021/07/30 05:56:15;;;;;;;14.15;7.25;;;21.40;1.00;;;;;;5062011;28;20049;-69
2021/07/30 05:59:03;;;;;;;9.82;6.57;;;20.60;1.00;;;;;;5079026;28;20076;-70
2021/07/30 06:01:52;;;;;;;11.32;7.13;;;19.50;1.00;;;;;;5080348;28;20358;-71
2021/07/30 06:04:40;;;;;;;10.13;6.90;;;19.10;1.00;;;;;;5075297;28;20411;-69
2021/07/30 06:07:29;;;;;;;11.27;7.13;;;18.30;1.50;;;;;;5074329;28;20056;-70
2021/07/30 06:10:19;;;;;;;9.30;6.95;;;18.90;1.40;;;;;;5078149;28;20044;-70
2021/07/30 06:13:07;;;;;;;11.45;6.70;;;19.30;1.00;;;;;;5080298;28;20071;-70
2021/07/30 06:15:55;;;;;;;11.85;5.90;;;18.90;1.00;;;;;;5075865;28;20068;-70
2021/07/30 06:18:44;;;;;;;10.93;6.10;;;19.50;1.00;;;;;;5074558;28;21024;-70
2021/07/30 06:21:33;;;;;;;14.38;6.38;;;19.40;1.00;;;;;;5077648;28;20126;-70
2021/07/30 06:24:21;;;;;;;9.80;6.00;;;20.00;1.00;;;;;;5079724;28;20056;-69
2021/07/30 06:27:11;;;;;;;6.75;5.60;;;20.70;1.00;;;;;;5076969;28;20389;-71
2021/07/30 06:30:00;;;;;;;6.85;5.25;;;21.90;1.00;;;;;;5076880;28;20140;-71
2021/07/30 06:32:48;;;;;;;7.20;5.38;;;22.90;1.00;;;;;;5074251;28;20123;-70
2021/07/30 06:35:36;;;;;;;10.23;5.15;;;23.50;1.00;;;;;;5079082;28;20048;-70
2021/07/30 06:38:26;;;;;;;6.97;5.15;;;22.70;1.00;;;;;;5077495;28;20056;-70
2021/07/30 06:41:15;;;;;;;7.75;5.20;;;22.50;1.00;;;;;;5076392;28;20620;-71
2021/07/30 06:44:05;;;;;;;7.60;5.68;;;22.40;1.00;;;;;;5076763;28;20041;-69
2021/07/30 06:46:54;;;;;;;7.00;5.15;;;20.60;1.00;;;;;;5075049;28;20127;-70
2021/07/30 06:49:42;;;;;;;9.65;5.90;;;20.20;1.00;;;;;;5064500;28;20129;-70
2021/07/30 06:52:31;;;;;;;10.60;5.30;;;20.20;1.00;;;;;;5076643;28;20530;-70
2021/07/30 06:55:21;;;;;;;8.80;4.85;;;20.20;1.00;;;;;;5080220;28;20085;-70
2021/07/30 06:58:09;;;;;;;6.85;5.07;;;20.50;1.00;;;;;;5077592;28;20131;-69
2021/07/30 07:00:59;;;;;;;6.60;5.22;;;20.30;1.00;;;;;;5080770;28;20157;-69
2021/07/30 07:03:47;;;;;;;8.13;5.80;;;20.60;1.00;;;;;;5082147;28;20064;-70
2021/07/30 07:06:36;;;;;;;8.68;4.95;;;20.30;1.00;;;;;;5070781;28;20429;-70
2021/07/30 07:09:24;;;;;;;7.55;4.65;;;20.60;1.00;;;;;;5076719;28;20445;-71
2021/07/30 07:12:13;;;;;;;6.10;4.80;;;21.00;1.00;;;;;;5076085;28;20526;-70
2021/07/30 07:15:01;;;;;;;8.30;4.93;;;20.90;1.00;;;;;;5064635;28;20052;-70
2021/07/30 07:17:51;;;;;;;8.90;5.28;;;21.20;1.00;;;;;;5079608;28;20123;-70
2021/07/30 07:20:40;;;;;;;9.00;5.03;;;21.30;1.00;;;;;;5078324;28;20130;-70
2021/07/30 07:23:28;;;;;;;6.03;4.30;;;21.70;1.00;;;;;;5073476;28;20055;-70
2021/07/30 07:26:17;;;;;;;5.95;4.40;;;21.70;1.00;;;;;;5079274;28;20499;-71
2021/07/30 07:29:06;;;;;;;7.38;4.72;;;21.60;1.00;;;;;;5083223;28;20136;-70
2021/07/30 07:31:54;;;;;;;6.88;4.45;;;21.60;1.00;;;;;;5076235;28;20189;-70
2021/07/30 07:34:44;;;;;;;7.28;4.10;;;21.60;1.00;;;;;;5062671;28;20063;-70
2021/07/30 07:37:32;;;;;;;7.55;5.05;;;22.20;1.00;;;;;;5079810;28;20076;-71
2021/07/30 07:40:21;;;;;;;6.78;4.72;;;22.90;1.00;;;;;;5068577;28;20056;-70
2021/07/30 07:43:09;;;;;;;8.80;4.28;;;23.20;1.00;;;;;;5080352;28;20464;-71
2021/07/30 07:45:57;;;;;;;8.32;4.03;;;23.50;1.00;;;;;;5080906;28;20115;-69
2021/07/30 07:48:49;;;;;;;8.23;4.97;;;23.40;1.00;;;;;;5077883;28;20563;-71
2021/07/30 07:51:39;;;;;;;6.63;4.50;;;23.10;1.00;;;;;;5077456;28;20052;-71
2021/07/30 07:54:27;;;;;;;6.88;4.40;;;22.90;1.00;;;;;;5077509;28;20070;-72
2021/07/30 07:57:16;;;;;;;10.63;4.90;;;23.20;1.00;;;;;;5082360;28;20052;-70
2021/07/30 08:00:05;;;;;;;7.57;4.72;;;23.10;1.00;;;;;;5065149;28;20048;-71
2021/07/30 08:02:59;;;;;;;;;;;22.50;1.00;;;;;;5076474;28;20391;-71
2021/07/30 08:05:47;;;;;;;10.30;4.53;;;22.70;1.00;;;;;;5076852;28;20295;-70
2021/07/30 08:08:37;;;;;;;9.75;5.30;;;23.00;1.00;;;;;;5079491;28;20519;-70
2021/07/30 08:11:25;;;;;;;7.80;4.65;;;22.80;1.00;;;;;;5082590;28;20141;-70
2021/07/30 08:14:14;;;;;;;6.80;4.63;;;22.10;1.00;;;;;;5079409;28;20085;-71
2021/07/30 08:17:02;;;;;;;9.63;4.85;;;22.50;1.00;;;;;;5075306;28;20090;-71
2021/07/30 08:19:51;;;;;;;7.95;4.95;;;22.80;1.00;;;;;;5082642;28;20067;-71
2021/07/30 08:22:41;;;;;;;8.10;3.92;;;23.20;1.00;;;;;;5081007;28;20063;-71
2021/07/30 08:25:31;;;;;;;7.70;4.50;;;23.40;1.00;;;;;;5076075;28;20164;-70
2021/07/30 08:28:19;;;;;;;6.95;4.50;;;23.80;1.00;;;;;;5075207;28;20048;-71
2021/07/30 08:31:07;;;;;;;7.90;4.72;;;23.70;1.00;;;;;;5075928;28;20139;-70
2021/07/30 08:33:56;;;;;;;9.15;4.72;;;23.80;1.00;;;;;;5077135;28;20178;-70
2021/07/30 08:36:44;;;;;;;7.45;3.85;;;23.90;1.00;;;;;;5079986;28;20051;-70
2021/07/30 08:39:33;;;;;;;4.40;3.70;;;23.90;1.00;;;;;;5076253;28;20409;-71
2021/07/30 08:42:23;;;;;;;4.57;3.72;;;24.30;1.00;;;;;;5074868;28;20083;-70
2021/07/30 08:45:11;;;;;;;7.18;3.92;;;24.30;1.00;;;;;;5075952;28;20364;-70
2021/07/30 08:48:01;;;;;;;4.90;3.72;;;24.30;1.00;;;;;;5078121;28;20044;-70
2021/07/30 08:50:51;;;;;;;4.53;3.38;;;24.10;1.00;;;;;;5062327;28;20578;-71
2021/07/30 08:53:41;;;;;;;6.88;3.83;;;23.80;1.00;;;;;;5075995;28;20486;-70
2021/07/30 08:56:29;;;;;;;4.20;3.63;;;24.40;1.00;;;;;;5064086;28;20057;-71
2021/07/30 08:59:21;;;;;;;4.30;3.78;;;24.70;1.00;;;;;;5081297;28;20101;-71
2021/07/30 09:02:10;;;;;;;5.97;3.40;;;24.70;1.00;;;;;;5079444;28;20147;-70
2021/07/30 09:04:58;;;;;;;6.30;3.38;;;24.90;1.00;;;;;;5077270;28;20360;-71
2021/07/30 09:07:46;;;;;;;6.20;3.15;;;24.90;1.00;;;;;;5079367;28;20127;-71
2021/07/30 09:10:38;;;;;;;8.55;3.47;;;24.30;1.00;;;;;;5071417;28;20101;-72
2021/07/30 09:13:28;;;;;;;4.22;3.55;;;24.80;1.00;;;;;;5074773;28;20486;-71
2021/07/30 09:16:18;;;;;;;8.18;3.45;;;25.10;1.00;;;;;;5081079;28;20182;-71
2021/07/30 09:19:06;;;;;;;12.65;4.15;;;25.10;1.00;;;;;;5073807;28;20055;-70
2021/07/30 09:22:12;;;;;;;6.60;3.80;;;25.10;1.00;;;;;;5073625;28;20580;-70
2021/07/30 09:25:01;;;;;;;4.45;3.70;;;24.90;1.00;;;;;;5071871;28;20044;-70
2021/07/30 09:27:49;;;;;;;5.75;3.70;;;25.00;1.00;;;;;;5081174;28;20125;-69
2021/07/30 09:30:38;;;;;;;4.75;3.60;;;25.70;1.00;;;;;;5080932;28;20131;-71
2021/07/30 09:33:29;;;;;;;5.22;3.40;;;25.60;1.00;;;;;;5075275;28;20045;-71
2021/07/30 09:36:19;;;;;;;6.47;3.85;;;25.70;1.00;;;;;;5076902;28;20170;-70
2021/07/30 09:39:08;;;;;;;4.50;3.60;;;25.30;1.00;;;;;;5074933;28;20572;-71
2021/07/30 09:42:01;;;;;;;9.85;4.00;;;25.20;1.00;;;;;;5078416;28;20606;-71
2021/07/30 09:44:53;;;;;;;6.22;4.07;;;25.20;1.00;;;;;;5076026;28;20040;-71
2021/07/30 09:47:48;;;;;;;6.05;3.75;;;25.60;1.00;;;;;;5077227;28;20224;-71
2021/07/30 09:50:38;;;;;;;5.20;3.85;;;25.30;1.00;;;;;;5076278;28;20089;-72
2021/07/30 09:53:26;;;;;;;4.13;3.67;;;24.80;1.00;;;;;;5076030;28;20051;-72
2021/07/30 09:56:16;;;;;;;5.22;4.22;;;25.40;1.00;;;;;;5062815;28;20534;-70
2021/07/30 09:59:04;;;;;;;5.50;3.50;;;25.90;1.00;;;;;;5081010;28;20040;-70
2021/07/30 10:01:53;;;;;;;9.43;3.88;;;26.20;1.00;;;;;;5076906;28;20052;-72
2021/07/30 10:04:45;;;;;;;4.63;3.60;;;25.70;1.00;;;;;;5074006;28;20058;-71
2021/07/30 10:07:36;;;;;;;6.38;4.13;;;25.30;1.00;;;;;;5079087;28;20153;-70
2021/07/30 10:10:26;;;;;;;5.13;3.67;;;25.00;1.00;;;;;;5079476;28;20049;-71
2021/07/30 10:13:18;;;;;;;7.15;4.00;;;25.40;1.00;;;;;;5077510;28;20133;-71
2021/07/30 10:16:08;;;;;;;5.35;4.15;;;25.50;1.00;;;;;;5059859;28;20134;-70
2021/07/30 10:18:57;;;;;;;5.70;4.28;;;25.50;1.00;;;;;;5072759;28;20048;-72
2021/07/30 10:21:46;;;;;;;5.95;3.92;;;25.60;1.00;;;;;;5076399;28;20086;-70
2021/07/30 10:24:43;;;;;;;4.82;3.88;;;25.40;1.00;;;;;;5077655;28;20056;-71
2021/07/30 10:27:32;;;;;;;6.05;3.88;;;25.40;1.00;;;;;;5065221;28;20632;-71
2021/07/30 10:30:21;;;;;;;4.78;3.85;;;26.10;1.00;;;;;;5078337;28;20044;-72
2021/07/30 10:33:09;;;;;;;6.85;4.00;;;25.60;1.00;;;;;;5076630;28;20045;-71
2021/07/30 10:35:58;;;;;;;5.55;3.80;;;25.60;1.00;;;;;;5084578;28;20047;-72
2021/07/30 10:39:06;;;;;;;8.93;4.20;;;25.30;1.00;;;;;;5077697;28;20181;-71
2021/07/30 10:42:11;;;;;;;4.05;3.65;;;25.60;1.00;;;;;;5079630;28;20148;-72
2021/07/30 10:45:17;;;;;;;;;;;25.60;1.00;;;;;;5078269;28;20103;-72
2021/07/30 10:48:30;;;;;;;5.22;3.92;;;25.90;1.00;;;;;;5076333;28;19925;-72
2021/07/30 10:51:27;;;;;;;5.93;4.28;;;26.40;1.00;;;;;;5081967;28;20182;-72
2021/07/30 10:54:15;;;;;;;6.90;3.90;;;26.30;1.00;;;;;;5082654;28;20052;-71
2021/07/30 10:57:04;;;;;;;8.68;3.90;;;25.20;1.00;;;;;;5082129;28;20430;-71
2021/07/30 11:00:05;;;;;;;8.80;4.20;;;25.80;1.00;;;;;;5074878;28;20468;-71
2021/07/30 11:03:05;;;;;;;7.97;4.28;;;25.10;1.00;;;;;;5078487;28;20101;-71
2021/07/30 11:06:11;;;;;;;5.70;4.00;;;25.40;1.00;;;;;;5079293;28;20154;-70
2021/07/30 11:09:16;;;;;;;;;;;26.20;1.00;;;;;;5068939;28;20483;-72
2021/07/30 11:12:13;;;;;;;5.97;4.20;;;25.40;1.00;;;;;;5082763;28;19928;-71
2021/07/30 11:15:09;;;;;;;4.82;3.78;;;26.20;1.00;;;;;;5080182;28;20060;-70
2021/07/30 11:18:00;;;;;;;4.65;3.60;;;25.80;1.00;;;;;;5076472;28;20101;-71
2021/07/30 11:20:58;;;;;;;4.88;4.15;;;26.20;1.00;;;;;;5079724;28;20052;-71
2021/07/30 11:23:46;;;;;;;4.53;3.70;;;26.60;1.00;;;;;;5080097;28;20055;-71
2021/07/30 11:26:37;;;;;;;4.65;3.90;;;26.80;1.00;;;;;;5078769;28;20091;-71
2021/07/30 11:29:48;;;;;;;4.13;3.47;;;26.70;1.00;;;;;;5075568;28;20046;-71
2021/07/30 11:32:39;;;;;;;5.43;3.83;;;26.60;1.00;;;;;;5077319;28;20521;-71
2021/07/30 11:35:30;;;;;;;5.90;3.78;;;25.90;1.00;;;;;;5078265;28;20052;-71
2021/07/30 11:38:20;;;;;;;4.10;3.70;;;25.70;1.00;;;;;;5079748;28;20492;-71
2021/07/30 11:41:11;;;;;;;7.15;3.78;;;26.40;1.00;;;;;;5083289;28;20540;-72
2021/07/30 11:44:01;;;;;;;4.85;3.90;;;26.00;1.00;;;;;;5079161;28;20055;-73
2021/07/30 11:46:54;;;;;;;4.80;3.75;;;26.00;1.00;;;;;;5076627;28;20174;-72
2021/07/30 11:49:46;;;;;;;6.00;3.85;;;26.60;1.00;;;;;;5077518;28;20048;-72
2021/07/30 11:52:38;;;;;;;7.50;3.85;;;25.80;1.00;;;;;;5079807;28;20067;-72
2021/07/30 11:55:27;;;;;;;4.03;3.63;;;25.80;1.00;;;;;;5078728;28;20043;-72
2021/07/30 11:58:15;;;;;;;8.38;4.13;;;25.50;1.00;;;;;;5077333;28;20044;-72
2021/07/30 12:01:10;;;;;;;4.03;3.63;;;26.30;1.00;;;;;;5075984;28;20039;-73
2021/07/30 12:04:05;;;;;;;4.20;3.80;;;26.30;1.00;;;;;;5081607;28;20043;-71
2021/07/30 12:06:59;;;;;;;4.35;3.70;;;27.00;1.00;;;;;;5083251;28;20052;-72
2021/07/30 12:09:51;;;;;;;5.10;3.83;;;27.20;1.00;;;;;;5079835;28;20123;-72
2021/07/30 12:12:41;;;;;;;4.40;3.72;;;26.70;1.00;;;;;;5079905;28;20059;-73
2021/07/30 12:15:30;;;;;;;5.88;3.88;;;26.80;1.00;;;;;;5077874;28;20116;-73
2021/07/30 12:18:30;;;;;;;4.88;3.47;;;26.30;1.00;;;;;;5077767;28;20051;-72
2021/07/30 12:21:18;;;;;;;4.47;3.70;;;26.40;1.00;;;;;;5080263;28;20123;-71
2021/07/30 12:24:08;;;;;;;4.57;3.88;;;26.50;1.00;;;;;;5079430;28;20040;-71
2021/07/30 12:26:58;;;;;;;5.00;3.88;;;26.60;1.00;;;;;;5075896;28;20040;-75
2021/07/30 12:29:48;;;;;;;4.55;3.85;;;26.60;1.00;;;;;;5072815;28;20044;-71
2021/07/30 12:32:38;;;;;;;4.18;3.38;;;27.00;1.00;;;;;;5076943;28;20064;-71
2021/07/30 12:35:34;;;;;;;4.13;3.72;;;26.40;1.00;;;;;;5075987;28;20124;-73
2021/07/30 12:38:23;;;;;;;5.85;3.63;;;26.50;1.00;;;;;;5077878;28;20445;-73
2021/07/30 12:41:18;;;;;;;5.28;3.88;;;26.20;1.00;;;;;;5064831;28;20101;-72
2021/07/30 12:44:10;;;;;;;4.90;3.42;;;25.90;1.00;;;;;;5073073;28;20083;-73
2021/07/30 12:46:59;;;;;;;4.88;3.97;;;26.40;1.00;;;;;;5079239;28;20040;-73
2021/07/30 12:49:48;;;;;;;6.47;4.22;;;26.30;1.00;;;;;;5079733;28;20452;-73
2021/07/30 12:52:37;;;;;;;8.10;3.83;;;26.60;1.00;;;;;;5075418;28;20055;-72
2021/07/30 12:55:25;;;;;;;6.30;4.00;;;26.40;1.00;;;;;;5073597;28;20127;-71
2021/07/30 12:58:23;;;;;;;5.00;3.67;;;26.30;1.00;;;;;;5074905;28;20044;-73
2021/07/30 13:01:13;;;;;;;4.15;3.30;;;26.70;1.00;;;;;;5076847;28;20122;-73
2021/07/30 13:04:02;;;;;;;6.43;4.50;;;26.50;1.00;;;;;;5076198;28;20045;-74
2021/07/30 13:06:51;;;;;;;4.05;3.40;;;26.30;1.00;;;;;;5073145;28;20105;-74
2021/07/30 13:09:40;;;;;;;5.63;3.88;;;26.40;1.00;;;;;;5071488;28;20147;-74
2021/07/30 13:12:28;;;;;;;4.43;4.00;;;26.60;1.00;;;;;;5072810;28;20045;-74
2021/07/30 13:15:18;;;;;;;6.03;3.95;;;26.80;1.00;;;;;;5078888;28;20119;-74
2021/07/30 13:18:07;;;;;;;7.10;3.78;;;26.90;1.00;;;;;;5076115;28;20515;-74
2021/07/30 13:20:56;;;;;;;5.13;4.25;;;26.50;1.00;;;;;;5078117;28;20044;-76
2021/07/30 13:23:44;;;;;;;5.88;3.95;;;26.20;1.00;;;;;;5076457;28;20135;-74
2021/07/30 13:26:36;;;;;;;4.93;4.20;;;26.50;1.00;;;;;;5075046;28;20052;-75
2021/07/30 13:29:37;;;;;;;7.07;4.20;;;26.70;1.00;;;;;;5053379;28;20040;-75
2021/07/30 13:32:27;;;;;;;6.13;4.20;;;26.60;1.00;;;;;;5070048;28;20048;-75
2021/07/30 13:35:16;;;;;;;4.13;3.72;;;27.30;1.00;;;;;;5073338;28;20048;-74
2021/07/30 13:38:05;;;;;;;4.63;4.10;;;27.30;1.00;;;;;;5075270;28;20094;-75
2021/07/30 13:40:55;;;;;;;9.43;4.45;;;27.50;1.00;;;;;;5063191;28;20131;-74
2021/07/30 13:43:44;;;;;;;7.38;4.35;;;27.20;1.00;;;;;;5078759;28;20624;-76
2021/07/30 13:46:32;;;;;;;5.70;4.25;;;27.10;1.00;;;;;;5076670;28;20048;-76
2021/07/30 13:49:23;;;;;;;4.78;4.20;;;26.90;1.00;;;;;;5075315;28;20070;-75
2021/07/30 13:52:11;;;;;;;9.95;4.45;;;26.50;1.00;;;;;;5078259;28;20063;-74
2021/07/30 13:55:01;;;;;;;6.75;4.18;;;27.00;1.00;;;;;;5053493;28;20040;-76
2021/07/30 13:57:50;;;;;;;6.68;3.95;;;27.00;1.00;;;;;;5077276;28;20044;-75
2021/07/30 14:00:38;;;;;;;5.05;4.15;;;27.30;1.00;;;;;;5064289;28;20040;-75
2021/07/30 14:03:27;;;;;;;5.35;4.45;;;27.90;1.00;;;;;;5060338;28;20051;-76
2021/07/30 14:06:18;;;;;;;5.03;4.20;;;27.40;1.00;;;;;;5083073;28;20041;-74
2021/07/30 14:09:06;;;;;;;8.90;4.20;;;27.10;1.00;;;;;;5068977;28;20051;-75
2021/07/30 14:11:55;;;;;;;7.68;4.82;;;27.30;1.00;;;;;;5079908;28;20097;-76
2021/07/30 14:14:43;;;;;;;6.53;4.32;;;27.60;1.00;;;;;;5080659;28;20414;-75
2021/07/30 14:17:31;;;;;;;5.55;4.55;;;27.30;1.00;;;;;;5081197;28;20052;-76
2021/07/30 14:20:20;;;;;;;6.05;4.32;;;27.20;1.00;;;;;;5082532;28;20047;-74
2021/07/30 14:23:10;;;;;;;6.20;5.25;;;27.30;1.00;;;;;;5082154;28;20412;-75
2021/07/30 14:25:59;;;;;;;5.28;4.50;;;27.60;1.00;;;;;;5076692;28;20653;-76
2021/07/30 14:28:48;;;;;;;5.88;4.28;;;26.40;1.00;;;;;;5079496;28;20048;-75
2021/07/30 14:31:37;;;;;;;6.57;4.72;;;27.00;1.00;;;;;;5084722;28;20096;-77
2021/07/30 14:34:25;;;;;;;5.88;4.50;;;26.70;1.00;;;;;;5078154;28;20129;-75
2021/07/30 14:37:14;;;;;;;4.70;4.10;;;27.30;1.00;;;;;;5078120;28;20242;-74
2021/07/30 14:40:05;;;;;;;6.47;4.68;;;26.60;1.00;;;;;;5081978;28;20052;-76
2021/07/30 14:42:54;;;;;;;4.78;4.38;;;27.50;1.00;;;;;;5078331;28;20048;-75
2021/07/30 14:45:43;;;;;;;5.13;4.40;;;27.80;1.00;;;;;;5085695;28;20048;-75
2021/07/30 14:48:32;;;;;;;6.68;4.60;;;27.20;1.00;;;;;;5080695;28;20083;-75
2021/07/30 14:51:21;;;;;;;5.28;4.25;;;27.20;1.00;;;;;;5077514;28;20029;-76
2021/07/30 14:54:10;;;;;;;4.80;4.30;;;27.10;1.00;;;;;;5078575;28;20052;-75